Time;durP1;ratioP1;P1;durP2;ratioP2;P2;SDS_P1;SDS_P2;PMS_P1;PMS_P2;Temp;Humidity;BMP_temperature;BMP_pressure;BME280_temperature;BME280_humidity;BME280_pressure;Samples;Min_cycle;Max_cycle;Signal;HPM_P1;HPM_P2
2023/01/08 00:02:06;;;;;;;7.93;4.72;;;9.60;99.90;;;;;;5047243;28;20039;-84
2023/01/08 00:04:32;;;;;;;7.70;4.70;;;9.60;99.90;;;;;;5061157;28;20036;-85
2023/01/08 00:06:57;;;;;;;8.15;4.65;;;9.60;99.90;;;;;;5064699;28;20033;-85
2023/01/08 00:09:23;;;;;;;8.48;5.00;;;9.60;99.90;;;;;;5047391;28;20173;-85
2023/01/08 00:11:48;;;;;;;7.55;4.40;;;9.70;99.90;;;;;;5048271;28;20037;-85
2023/01/08 00:14:14;;;;;;;7.68;5.00;;;9.70;99.90;;;;;;5049917;28;20039;-85
2023/01/08 00:16:40;;;;;;;7.15;4.85;;;9.70;99.90;;;;;;5079530;28;20049;-85
2023/01/08 00:19:05;;;;;;;7.43;4.90;;;9.70;99.90;;;;;;5050047;28;20040;-85
2023/01/08 00:21:31;;;;;;;7.57;5.28;;;9.80;99.90;;;;;;5064602;28;20048;-85
2023/01/08 00:23:57;;;;;;;7.88;4.57;;;9.80;99.90;;;;;;5061574;28;20119;-84
2023/01/08 00:26:22;;;;;;;6.78;4.57;;;9.80;99.90;;;;;;5045589;28;20171;-85
2023/01/08 00:28:48;;;;;;;8.73;4.75;;;9.80;99.90;;;;;;5063120;28;20044;-85
2023/01/08 00:31:14;;;;;;;9.43;4.63;;;9.80;99.90;;;;;;5063765;28;20045;-85
2023/01/08 00:33:40;;;;;;;7.55;4.75;;;9.80;99.90;;;;;;5045603;28;20067;-85
2023/01/08 00:36:11;;;;;;;7.53;4.00;;;9.80;99.90;;;;;;5064105;28;20405;-84
2023/01/08 00:38:37;;;;;;;6.80;4.57;;;9.80;99.90;;;;;;5057741;28;20121;-85
2023/01/08 00:41:03;;;;;;;7.97;4.82;;;9.80;99.90;;;;;;5078843;28;20301;-85
2023/01/08 00:43:29;;;;;;;7.70;4.40;;;9.70;99.90;;;;;;5047117;28;20064;-85
2023/01/08 00:45:55;;;;;;;8.90;4.88;;;9.80;99.90;;;;;;5044196;28;20071;-85
2023/01/08 00:48:21;;;;;;;7.40;4.78;;;9.70;99.90;;;;;;5046509;28;20072;-85
2023/01/08 00:50:48;;;;;;;7.90;4.78;;;9.70;99.90;;;;;;5060182;28;20067;-85
2023/01/08 00:53:14;;;;;;;8.57;4.70;;;9.70;99.90;;;;;;5046762;28;20044;-85
2023/01/08 00:55:40;;;;;;;6.95;4.70;;;9.70;99.90;;;;;;5060866;28;20099;-84
2023/01/08 00:58:05;;;;;;;6.68;4.50;;;9.70;99.90;;;;;;5045305;28;20500;-85
2023/01/08 01:00:31;;;;;;;7.07;4.60;;;9.60;99.90;;;;;;5041596;28;20118;-85
2023/01/08 01:02:56;;;;;;;6.65;4.43;;;9.70;99.90;;;;;;5042542;28;20083;-85
2023/01/08 01:05:22;;;;;;;6.07;4.25;;;9.60;99.90;;;;;;5062954;28;20044;-85
2023/01/08 01:07:48;;;;;;;8.40;4.40;;;9.60;99.90;;;;;;5045327;28;20393;-84
2023/01/08 01:10:15;;;;;;;7.68;4.32;;;9.70;99.90;;;;;;5047896;28;20048;-85
2023/01/08 01:12:41;;;;;;;7.22;4.22;;;9.60;99.90;;;;;;5060840;28;20036;-85
2023/01/08 01:15:09;;;;;;;6.72;4.00;;;9.60;99.90;;;;;;5046844;28;20029;-85
2023/01/08 01:17:37;;;;;;;7.38;4.13;;;9.60;99.90;;;;;;5056811;28;20442;-85
2023/01/08 01:20:04;;;;;;;7.57;4.13;;;9.60;99.90;;;;;;5046793;28;20040;-85
2023/01/08 01:22:29;;;;;;;8.18;3.65;;;9.70;99.90;;;;;;5063931;28;20032;-85
2023/01/08 01:24:56;;;;;;;6.35;3.75;;;9.70;99.90;;;;;;5047937;28;20036;-85
2023/01/08 01:27:21;;;;;;;5.65;3.42;;;9.70;99.90;;;;;;5060190;28;20032;-85
2023/01/08 01:29:47;;;;;;;6.30;3.50;;;9.70;99.90;;;;;;5046727;28;20062;-85
2023/01/08 01:32:12;;;;;;;7.95;3.72;;;9.70;99.90;;;;;;5063084;28;20040;-85
2023/01/08 01:34:38;;;;;;;8.55;3.70;;;9.70;99.90;;;;;;5041608;28;20036;-84
2023/01/08 01:37:04;;;;;;;6.55;3.60;;;9.70;99.90;;;;;;5043552;28;20052;-85
2023/01/08 01:39:29;;;;;;;6.65;3.72;;;9.70;99.90;;;;;;5044628;28;20040;-85
2023/01/08 01:41:55;;;;;;;7.57;3.92;;;9.70;99.90;;;;;;5045301;28;20414;-85
2023/01/08 01:44:39;;;;;;;7.95;4.20;;;9.70;99.90;;;;;;5045200;28;20566;-85
2023/01/08 01:47:47;;;;;;;9.23;4.20;;;9.60;99.90;;;;;;5055980;28;20063;-85
2023/01/08 01:50:27;;;;;;;7.43;4.30;;;9.50;99.90;;;;;;4981363;28;20088;-85
2023/01/08 01:53:13;;;;;;;6.50;4.20;;;9.50;99.90;;;;;;4982987;28;20116;-85
2023/01/08 01:55:41;;;;;;;9.13;4.20;;;9.40;99.90;;;;;;4982248;28;20056;-85
2023/01/08 01:58:21;;;;;;;8.18;3.72;;;9.30;99.90;;;;;;4981138;28;20139;-85
2023/01/08 02:00:48;;;;;;;7.82;4.00;;;9.30;99.90;;;;;;4984188;28;20042;-85
2023/01/08 02:03:14;;;;;;;8.15;4.10;;;9.30;99.90;;;;;;4984940;28;20093;-85
2023/01/08 02:06:15;;;;;;;6.65;3.20;;;9.30;99.90;;;;;;4983835;28;20054;-85
2023/01/08 02:09:02;;;;;;;7.78;3.65;;;9.30;99.90;;;;;;4978011;28;20403;-85
2023/01/08 02:12:15;;;;;;;8.32;3.35;;;9.30;99.90;;;;;;4983691;28;20517;-85
2023/01/08 02:14:51;;;;;;;8.57;3.70;;;9.30;99.90;;;;;;4978446;28;20058;-85
2023/01/08 02:17:24;;;;;;;10.13;3.58;;;9.30;99.90;;;;;;4984506;28;20100;-84
2023/01/08 02:20:05;;;;;;;6.32;3.10;;;9.20;99.90;;;;;;4985403;28;20137;-85
2023/01/08 02:22:52;;;;;;;12.60;3.88;;;9.20;99.90;;;;;;4983208;28;20045;-85
2023/01/08 02:25:46;;;;;;;9.20;3.00;;;9.20;99.90;;;;;;5000283;28;20080;-85
2023/01/08 02:28:13;;;;;;;7.07;2.80;;;9.10;99.90;;;;;;5043656;28;20796;-85
2023/01/08 02:30:40;;;;;;;6.93;3.10;;;9.10;99.90;;;;;;5043523;28;20085;-85
2023/01/08 02:33:05;;;;;;;6.47;2.60;;;9.00;99.90;;;;;;5044427;28;20477;-85
2023/01/08 02:35:44;;;;;;;7.38;2.63;;;9.00;99.90;;;;;;5042545;28;20171;-85
2023/01/08 02:38:16;;;;;;;9.55;2.97;;;9.00;99.90;;;;;;5044196;28;20613;-85
2023/01/08 02:41:04;;;;;;;12.70;2.72;;;8.90;99.90;;;;;;5043729;28;20056;-84
2023/01/08 02:43:48;;;;;;;9.32;3.17;;;8.90;99.90;;;;;;5059526;28;20049;-85
2023/01/08 02:46:22;;;;;;;10.07;3.25;;;8.80;99.90;;;;;;5048864;28;20032;-85
2023/01/08 02:48:52;;;;;;;11.02;2.83;;;8.80;99.90;;;;;;5044565;28;20044;-85
2023/01/08 02:51:39;;;;;;;10.55;2.85;;;8.70;99.90;;;;;;5045426;28;20407;-85
2023/01/08 02:54:11;;;;;;;12.60;3.22;;;8.70;99.90;;;;;;5047005;28;20041;-85
2023/01/08 02:56:42;;;;;;;12.32;2.42;;;8.60;99.90;;;;;;5050002;28;20382;-85
2023/01/08 02:59:11;;;;;;;8.70;2.55;;;8.60;99.90;;;;;;5062811;28;20037;-85
2023/01/08 03:01:38;;;;;;;10.95;2.90;;;8.50;99.90;;;;;;5048834;28;20071;-85
2023/01/08 03:04:10;;;;;;;12.57;3.00;;;8.50;99.90;;;;;;5064587;28;20029;-85
2023/01/08 03:06:36;;;;;;;10.05;2.88;;;8.40;99.90;;;;;;5059964;28;20093;-85
2023/01/08 03:09:04;;;;;;;15.68;2.83;;;8.40;99.90;;;;;;5061885;28;20041;-85
2023/01/08 03:11:42;;;;;;;11.95;3.00;;;8.30;99.90;;;;;;5046902;28;20051;-85
2023/01/08 03:14:36;;;;;;;8.52;2.60;;;8.30;99.90;;;;;;5063006;28;20092;-85
2023/01/08 03:17:30;;;;;;;10.60;2.60;;;8.20;99.90;;;;;;5062736;28;20041;-85
2023/01/08 03:20:03;;;;;;;15.10;3.47;;;8.20;99.90;;;;;;5044403;28;20302;-85
2023/01/08 03:22:31;;;;;;;10.00;2.83;;;8.10;99.90;;;;;;5046586;28;20115;-84
2023/01/08 03:24:58;;;;;;;8.50;2.67;;;8.10;99.90;;;;;;5062847;28;20068;-85
2023/01/08 03:27:29;;;;;;;7.85;2.72;;;8.10;99.90;;;;;;5064877;28;20381;-85
2023/01/08 03:29:58;;;;;;;11.75;3.20;;;8.10;99.90;;;;;;5063769;28;20047;-85
2023/01/08 03:32:26;;;;;;;10.73;2.88;;;8.10;99.90;;;;;;5064805;28;20040;-84
2023/01/08 03:34:54;;;;;;;9.90;2.83;;;8.10;99.90;;;;;;5062433;28;20052;-85
2023/01/08 03:37:25;;;;;;;7.72;3.47;;;8.10;99.90;;;;;;5048734;28;20388;-85
2023/01/08 03:40:26;;;;;;;8.20;2.97;;;8.10;99.90;;;;;;5047635;28;20458;-84
2023/01/08 03:42:52;;;;;;;11.23;3.50;;;8.10;99.90;;;;;;4998330;28;20051;-85
2023/01/08 03:45:20;;;;;;;8.60;2.67;;;8.10;99.90;;;;;;5062021;28;20028;-85
2023/01/08 03:47:46;;;;;;;12.25;3.38;;;8.10;99.90;;;;;;5045745;28;20964;-84
2023/01/08 03:50:21;;;;;;;7.00;2.90;;;8.10;99.90;;;;;;5064159;28;20056;-86
2023/01/08 03:52:46;;;;;;;11.27;3.30;;;8.10;99.90;;;;;;5060828;28;20760;-85
2023/01/08 03:55:12;;;;;;;7.80;2.92;;;8.10;99.90;;;;;;5043037;28;20045;-85
2023/01/08 03:57:37;;;;;;;9.90;3.38;;;8.10;99.90;;;;;;5060833;28;20048;-85
2023/01/08 04:00:03;;;;;;;8.88;3.03;;;8.10;99.90;;;;;;5061823;28;20062;-85
2023/01/08 04:02:29;;;;;;;12.05;3.20;;;8.10;99.90;;;;;;5060415;28;20388;-85
2023/01/08 04:04:55;;;;;;;11.57;3.20;;;8.10;99.90;;;;;;5045433;28;20037;-85
2023/01/08 04:07:20;;;;;;;13.70;3.47;;;8.00;99.90;;;;;;5046832;28;20272;-85
2023/01/08 04:09:46;;;;;;;8.93;3.33;;;8.00;99.90;;;;;;5046066;28;20045;-85
2023/01/08 04:12:11;;;;;;;10.48;3.38;;;8.00;99.90;;;;;;5063546;28;20045;-85
2023/01/08 04:14:37;;;;;;;10.10;3.38;;;8.00;99.90;;;;;;5059088;28;20081;-85
2023/01/08 04:17:02;;;;;;;10.38;3.72;;;7.90;99.90;;;;;;5048268;28;20040;-85
2023/01/08 04:19:28;;;;;;;10.68;3.95;;;7.90;99.90;;;;;;5041042;28;20036;-85
2023/01/08 04:21:54;;;;;;;10.52;3.30;;;7.90;99.90;;;;;;5045407;28;20107;-85
2023/01/08 04:24:20;;;;;;;7.28;3.40;;;7.80;99.90;;;;;;5064628;28;20040;-85
2023/01/08 04:26:45;;;;;;;11.55;3.45;;;7.80;99.90;;;;;;5045572;28;20033;-85
2023/01/08 04:29:12;;;;;;;14.23;3.53;;;7.80;99.90;;;;;;5061320;28;20497;-85
2023/01/08 04:31:38;;;;;;;6.75;3.30;;;7.70;99.90;;;;;;5045019;28;20114;-85
2023/01/08 04:34:03;;;;;;;8.95;3.38;;;7.70;99.90;;;;;;5047036;28;20477;-85
2023/01/08 04:36:29;;;;;;;13.45;3.92;;;7.70;99.90;;;;;;5043662;28;20091;-85
2023/01/08 04:38:55;;;;;;;11.05;4.22;;;7.70;99.90;;;;;;5043693;28;20029;-85
2023/01/08 04:41:20;;;;;;;7.47;3.92;;;7.70;99.90;;;;;;5047322;28;20090;-85
2023/01/08 04:43:46;;;;;;;8.88;3.70;;;7.80;99.90;;;;;;5046760;28;20067;-85
2023/01/08 04:46:11;;;;;;;8.60;3.65;;;7.80;99.90;;;;;;5061843;28;20037;-85
2023/01/08 04:48:37;;;;;;;10.05;3.90;;;7.80;99.90;;;;;;5043536;28;20492;-85
2023/01/08 04:51:03;;;;;;;9.82;4.20;;;7.80;99.90;;;;;;5045545;28;20041;-85
2023/01/08 04:53:32;;;;;;;7.90;3.97;;;7.90;99.90;;;;;;5063868;28;20070;-85
2023/01/08 04:56:03;;;;;;;9.98;4.45;;;7.90;99.90;;;;;;5047590;28;21916;-85
2023/01/08 04:58:29;;;;;;;10.40;4.22;;;7.90;99.90;;;;;;5060659;28;20044;-85
2023/01/08 05:00:54;;;;;;;7.95;4.20;;;7.90;99.90;;;;;;5045377;28;20036;-85
2023/01/08 05:03:20;;;;;;;8.07;4.30;;;8.00;99.90;;;;;;5041117;28;20102;-85
2023/01/08 05:05:45;;;;;;;10.32;4.32;;;8.00;99.90;;;;;;5047093;28;20393;-85
2023/01/08 05:08:11;;;;;;;10.18;4.05;;;8.00;99.90;;;;;;5047382;28;20089;-85
2023/01/08 05:10:36;;;;;;;10.10;4.47;;;8.00;99.90;;;;;;5061065;28;20051;-85
2023/01/08 05:13:02;;;;;;;8.45;4.07;;;8.00;99.90;;;;;;5045424;28;20417;-85
2023/01/08 05:15:28;;;;;;;9.05;4.25;;;8.00;99.90;;;;;;5058809;28;20037;-85
2023/01/08 05:18:01;;;;;;;9.32;4.28;;;8.00;99.90;;;;;;5047619;28;20381;-85
2023/01/08 05:20:27;;;;;;;9.05;4.05;;;8.00;99.90;;;;;;5058401;28;20045;-85
2023/01/08 05:22:53;;;;;;;10.50;4.80;;;8.10;99.90;;;;;;5046725;28;20039;-85
2023/01/08 05:25:18;;;;;;;8.02;4.38;;;8.10;99.90;;;;;;5042942;28;20327;-85
2023/01/08 05:27:44;;;;;;;9.30;4.22;;;8.10;99.90;;;;;;5046735;28;20041;-84
2023/01/08 05:30:10;;;;;;;8.38;4.20;;;8.20;99.90;;;;;;5043140;28;20047;-85
2023/01/08 05:32:36;;;;;;;10.10;4.28;;;8.20;99.90;;;;;;5042664;28;20032;-85
2023/01/08 05:35:01;;;;;;;11.18;4.10;;;8.20;99.90;;;;;;5046327;28;20400;-85
2023/01/08 05:37:27;;;;;;;7.88;3.72;;;8.20;99.90;;;;;;5046317;28;20048;-85
2023/01/08 05:39:52;;;;;;;9.13;4.00;;;8.20;99.90;;;;;;5045285;28;20055;-85
2023/01/08 05:42:18;;;;;;;6.63;3.60;;;8.30;99.90;;;;;;5059118;28;20524;-85
2023/01/08 05:44:44;;;;;;;7.45;3.60;;;8.30;99.90;;;;;;5059787;28;20039;-85
2023/01/08 05:47:09;;;;;;;6.15;3.70;;;8.30;99.90;;;;;;5061525;28;20044;-85
2023/01/08 05:49:35;;;;;;;8.88;3.97;;;8.30;99.90;;;;;;5046872;28;20159;-85
2023/01/08 05:52:00;;;;;;;7.85;3.95;;;8.30;99.90;;;;;;5045115;28;20037;-85
2023/01/08 05:54:26;;;;;;;9.85;3.53;;;8.30;99.90;;;;;;5040490;28;20412;-85
2023/01/08 05:56:51;;;;;;;4.90;3.05;;;8.20;99.90;;;;;;5060387;28;20044;-85
2023/01/08 05:59:17;;;;;;;9.35;3.13;;;8.20;99.90;;;;;;5061003;28;20044;-85
2023/01/08 06:01:42;;;;;;;6.55;3.30;;;8.20;99.90;;;;;;5058343;28;20045;-85
2023/01/08 06:04:08;;;;;;;6.55;3.05;;;8.20;99.90;;;;;;5060436;28;20036;-85
2023/01/08 06:06:33;;;;;;;5.93;2.88;;;8.30;99.90;;;;;;5076078;28;20037;-85
2023/01/08 06:08:59;;;;;;;6.28;2.85;;;8.30;99.90;;;;;;5058741;28;20063;-85
2023/01/08 06:11:25;;;;;;;8.90;3.20;;;8.30;99.90;;;;;;5044367;28;20048;-85
2023/01/08 06:13:50;;;;;;;6.22;2.88;;;8.30;99.90;;;;;;5060163;28;20078;-85
2023/01/08 06:16:16;;;;;;;6.25;2.80;;;8.30;99.90;;;;;;5045218;28;20051;-85
2023/01/08 06:18:42;;;;;;;5.28;3.08;;;8.30;99.90;;;;;;5059843;28;21102;-85
2023/01/08 06:21:08;;;;;;;7.60;2.70;;;8.20;99.90;;;;;;5046088;28;20040;-85
2023/01/08 06:23:34;;;;;;;6.40;2.80;;;8.20;99.90;;;;;;5044950;28;20036;-85
2023/01/08 06:26:02;;;;;;;7.10;3.10;;;8.10;99.90;;;;;;5044128;28;20032;-85
2023/01/08 06:28:28;;;;;;;6.80;3.05;;;8.10;99.90;;;;;;5048542;28;20036;-85
2023/01/08 06:30:57;;;;;;;7.05;3.25;;;8.10;99.90;;;;;;5047721;28;20394;-85
2023/01/08 06:33:23;;;;;;;6.57;3.60;;;8.10;99.90;;;;;;5049223;28;20131;-85
2023/01/08 06:35:48;;;;;;;9.65;3.63;;;8.10;99.90;;;;;;5065080;28;20044;-84
2023/01/08 06:38:14;;;;;;;11.70;4.30;;;8.10;99.90;;;;;;5066216;28;20049;-85
2023/01/08 06:40:40;;;;;;;7.57;4.00;;;8.10;99.90;;;;;;5065517;28;20052;-85
2023/01/08 06:43:05;;;;;;;9.20;4.10;;;8.10;99.90;;;;;;5051486;28;20480;-85
2023/01/08 06:45:31;;;;;;;7.90;4.30;;;8.00;99.90;;;;;;5050385;28;20111;-85
2023/01/08 06:48:05;;;;;;;11.45;4.05;;;7.90;99.90;;;;;;5051355;28;20040;-85
2023/01/08 06:50:33;;;;;;;9.05;4.55;;;7.80;99.90;;;;;;5051820;28;20445;-84
2023/01/08 06:52:58;;;;;;;7.90;3.95;;;7.80;99.90;;;;;;5066498;28;20438;-84
2023/01/08 06:55:25;;;;;;;7.35;3.88;;;7.70;99.90;;;;;;5067022;28;20029;-85
2023/01/08 06:57:58;;;;;;;5.95;4.15;;;7.60;99.90;;;;;;5064071;28;20476;-85
2023/01/08 07:00:25;;;;;;;7.75;4.47;;;7.60;99.90;;;;;;5061109;28;20049;-85
2023/01/08 07:02:51;;;;;;;9.35;4.30;;;7.60;99.90;;;;;;5060236;28;20037;-85
2023/01/08 07:05:17;;;;;;;9.77;4.32;;;7.60;99.90;;;;;;5051341;28;20397;-86
2023/01/08 07:07:42;;;;;;;8.13;4.40;;;7.60;99.90;;;;;;5065943;28;20036;-85
2023/01/08 07:10:08;;;;;;;8.77;4.38;;;7.60;99.90;;;;;;5063597;28;20124;-85
2023/01/08 07:12:34;;;;;;;9.63;4.45;;;7.60;99.90;;;;;;5049725;28;20067;-85
2023/01/08 07:15:00;;;;;;;9.57;4.45;;;7.60;99.90;;;;;;5065071;28;20079;-85
2023/01/08 07:17:25;;;;;;;9.43;4.43;;;7.70;99.90;;;;;;5063868;28;20373;-85
2023/01/08 07:19:51;;;;;;;10.40;4.57;;;7.70;99.90;;;;;;5050801;28;20043;-85
2023/01/08 07:22:16;;;;;;;10.43;4.30;;;7.60;99.90;;;;;;5047359;28;20442;-85
2023/01/08 07:24:42;;;;;;;7.05;3.95;;;7.50;99.90;;;;;;5049591;28;20037;-85
2023/01/08 07:27:07;;;;;;;11.25;4.38;;;7.50;99.90;;;;;;5049986;28;20028;-85
2023/01/08 07:29:33;;;;;;;10.05;4.45;;;7.50;99.90;;;;;;5050373;28;20114;-85
2023/01/08 07:31:59;;;;;;;9.77;3.90;;;7.50;99.90;;;;;;5048934;28;20032;-85
2023/01/08 07:34:24;;;;;;;8.35;4.10;;;7.40;99.90;;;;;;5065901;28;20050;-85
2023/01/08 07:36:50;;;;;;;7.55;4.20;;;7.40;99.90;;;;;;5065173;28;20486;-85
2023/01/08 07:39:15;;;;;;;8.10;3.75;;;7.50;99.90;;;;;;5049195;28;20040;-84
2023/01/08 07:41:43;;;;;;;9.68;3.88;;;7.50;99.90;;;;;;5061397;28;20128;-85
2023/01/08 07:44:10;;;;;;;10.77;4.40;;;7.40;99.90;;;;;;5062199;28;20532;-85
2023/01/08 07:46:35;;;;;;;7.68;3.75;;;7.40;99.90;;;;;;5050801;28;20036;-86
2023/01/08 07:49:01;;;;;;;11.30;4.00;;;7.40;99.90;;;;;;5049173;28;20098;-85
2023/01/08 07:51:27;;;;;;;11.65;4.75;;;7.40;99.90;;;;;;5047196;28;20500;-85
2023/01/08 07:53:55;;;;;;;8.90;4.50;;;7.40;99.90;;;;;;5049788;28;20591;-85
2023/01/08 07:56:20;;;;;;;7.60;4.10;;;7.30;99.90;;;;;;5050601;28;20462;-85
2023/01/08 07:58:46;;;;;;;14.45;4.70;;;7.30;99.90;;;;;;5062710;28;20056;-85
2023/01/08 08:01:13;;;;;;;13.00;4.97;;;7.30;99.90;;;;;;5046790;28;20044;-85
2023/01/08 08:03:39;;;;;;;14.10;5.15;;;7.30;99.90;;;;;;5050271;28;20081;-85
2023/01/08 08:06:06;;;;;;;9.98;4.82;;;7.30;99.90;;;;;;5067221;28;20060;-84
2023/01/08 08:08:31;;;;;;;11.90;4.80;;;7.30;99.90;;;;;;5064136;28;20041;-85
2023/01/08 08:10:57;;;;;;;10.55;5.28;;;7.20;99.90;;;;;;5081787;28;20089;-85
2023/01/08 08:13:23;;;;;;;11.77;5.18;;;7.20;99.90;;;;;;5049242;28;20047;-85
2023/01/08 08:15:48;;;;;;;14.07;5.22;;;7.20;99.90;;;;;;5064505;28;20043;-85
2023/01/08 08:18:14;;;;;;;9.25;4.68;;;7.20;99.90;;;;;;5064170;28;20497;-85
2023/01/08 08:20:39;;;;;;;12.52;4.68;;;7.20;99.90;;;;;;5065549;28;20060;-85
2023/01/08 08:23:11;;;;;;;12.60;4.60;;;7.20;99.90;;;;;;5047916;28;20045;-85
2023/01/08 08:25:37;;;;;;;12.75;4.80;;;7.10;99.90;;;;;;5049485;28;20386;-85
2023/01/08 08:28:04;;;;;;;9.60;4.43;;;7.10;99.90;;;;;;5050684;28;20052;-85
2023/01/08 08:30:31;;;;;;;9.85;4.50;;;7.10;99.90;;;;;;5061714;28;20036;-85
2023/01/08 08:32:59;;;;;;;10.30;4.05;;;7.20;99.90;;;;;;5048972;28;20384;-85
2023/01/08 08:35:25;;;;;;;9.75;3.90;;;7.30;99.90;;;;;;5062889;28;20037;-85
2023/01/08 08:37:52;;;;;;;10.75;3.83;;;7.40;99.90;;;;;;5065766;28;20047;-85
2023/01/08 08:40:17;;;;;;;11.52;3.60;;;7.50;99.90;;;;;;5044586;28;20048;-85
2023/01/08 08:42:43;;;;;;;10.13;3.25;;;7.50;99.90;;;;;;5045949;28;20059;-85
2023/01/08 08:45:09;;;;;;;9.68;3.97;;;7.60;99.90;;;;;;5041424;28;20044;-85
2023/01/08 08:47:34;;;;;;;11.40;4.03;;;7.60;99.90;;;;;;5047111;28;20512;-85
2023/01/08 08:50:01;;;;;;;7.95;3.78;;;7.60;99.90;;;;;;5049738;28;20040;-85
2023/01/08 08:52:26;;;;;;;8.77;3.60;;;7.70;99.90;;;;;;5062884;28;20474;-85
2023/01/08 08:54:52;;;;;;;7.75;3.65;;;7.70;99.90;;;;;;5076810;28;20123;-85
2023/01/08 08:57:18;;;;;;;7.25;3.20;;;7.80;99.90;;;;;;5044982;28;20152;-85
2023/01/08 08:59:43;;;;;;;12.82;3.70;;;7.80;99.90;;;;;;5063537;28;20028;-85
2023/01/08 09:02:10;;;;;;;9.55;3.72;;;7.90;99.90;;;;;;5065739;28;20154;-85
2023/01/08 09:04:36;;;;;;;6.18;3.17;;;7.90;99.90;;;;;;5047632;28;20043;-85
2023/01/08 09:07:01;;;;;;;8.20;3.88;;;8.00;99.90;;;;;;5048560;28;20036;-85
2023/01/08 09:09:27;;;;;;;9.40;3.97;;;8.00;99.90;;;;;;5049247;28;20040;-85
2023/01/08 09:11:53;;;;;;;12.80;3.50;;;8.10;99.90;;;;;;5046332;28;20037;-84
2023/01/08 09:14:19;;;;;;;7.82;2.83;;;8.10;99.90;;;;;;5064504;28;20174;-85
2023/01/08 09:16:45;;;;;;;12.15;3.55;;;8.20;99.90;;;;;;5046347;28;20073;-84
2023/01/08 09:19:11;;;;;;;7.95;3.30;;;8.20;99.90;;;;;;5048356;28;20048;-85
2023/01/08 09:21:36;;;;;;;10.80;3.03;;;8.30;99.90;;;;;;5048440;28;20043;-85
2023/01/08 09:24:02;;;;;;;7.88;3.38;;;8.30;99.90;;;;;;5063164;28;20131;-84
2023/01/08 09:26:29;;;;;;;7.07;2.85;;;8.30;99.90;;;;;;5063201;28;20033;-84
2023/01/08 09:28:56;;;;;;;9.00;3.00;;;8.40;99.90;;;;;;5046923;28;20134;-85
2023/01/08 09:31:22;;;;;;;11.70;3.40;;;8.50;99.90;;;;;;5048261;28;20066;-84
2023/01/08 09:33:48;;;;;;;7.28;2.90;;;8.50;99.90;;;;;;5080691;28;20051;-85
2023/01/08 09:36:13;;;;;;;10.23;2.95;;;8.50;99.90;;;;;;5064809;28;20052;-84
2023/01/08 09:38:39;;;;;;;8.40;2.92;;;8.60;99.90;;;;;;5064707;28;20162;-84
2023/01/08 09:41:10;;;;;;;8.35;2.80;;;8.60;99.90;;;;;;5063076;28;20045;-84
2023/01/08 09:43:42;;;;;;;8.48;2.90;;;8.70;99.90;;;;;;5049455;28;20451;-85
2023/01/08 09:46:08;;;;;;;8.88;3.08;;;8.80;99.90;;;;;;5063296;28;20044;-84
2023/01/08 09:48:37;;;;;;;10.00;2.78;;;8.80;99.90;;;;;;5047610;28;20040;-84
2023/01/08 09:51:03;;;;;;;7.75;2.95;;;8.90;99.90;;;;;;5061171;28;20443;-84
2023/01/08 09:53:29;;;;;;;10.50;2.63;;;9.00;99.90;;;;;;5047817;28;20128;-85
2023/01/08 09:55:59;;;;;;;9.75;3.05;;;9.00;99.90;;;;;;5043801;28;20691;-84
2023/01/08 09:58:43;;;;;;;8.43;2.80;;;9.10;99.90;;;;;;5043693;28;20040;-84
2023/01/08 10:01:15;;;;;;;7.10;2.60;;;9.10;99.90;;;;;;5063487;28;20044;-84
2023/01/08 10:03:48;;;;;;;8.57;2.50;;;9.20;99.90;;;;;;5060609;28;20120;-84
2023/01/08 10:06:15;;;;;;;11.75;2.90;;;9.20;99.90;;;;;;5048328;28;20043;-84
2023/01/08 10:08:41;;;;;;;9.50;2.72;;;9.30;99.90;;;;;;5048354;28;20043;-84
2023/01/08 10:11:09;;;;;;;8.63;2.80;;;9.20;99.90;;;;;;5063420;28;20033;-84
2023/01/08 10:13:38;;;;;;;8.10;2.60;;;9.30;99.90;;;;;;5064515;28;20068;-83
2023/01/08 10:16:07;;;;;;;9.85;2.80;;;9.30;99.90;;;;;;5047164;28;20178;-84
2023/01/08 10:18:33;;;;;;;10.48;2.50;;;9.30;99.90;;;;;;5048259;28;20040;-84
2023/01/08 10:20:59;;;;;;;12.05;2.80;;;9.30;99.90;;;;;;5047661;28;20043;-84
2023/01/08 10:23:24;;;;;;;7.57;2.60;;;9.40;99.90;;;;;;5046666;28;20028;-84
2023/01/08 10:25:59;;;;;;;10.60;2.75;;;9.50;99.90;;;;;;5061385;28;20143;-84
2023/01/08 10:28:30;;;;;;;12.00;3.00;;;9.60;99.90;;;;;;5046888;28;20040;-83
2023/01/08 10:31:15;;;;;;;7.00;2.65;;;9.60;99.90;;;;;;5062529;28;20538;-84
2023/01/08 10:33:44;;;;;;;11.48;2.78;;;9.70;99.90;;;;;;5046884;28;20735;-84
2023/01/08 10:36:17;;;;;;;9.27;2.72;;;9.70;99.90;;;;;;5046658;28;20132;-83
2023/01/08 10:38:57;;;;;;;8.63;2.83;;;9.80;99.90;;;;;;5045015;28;20040;-84
2023/01/08 10:41:23;;;;;;;7.88;2.53;;;9.80;99.90;;;;;;5062241;28;20086;-84
2023/01/08 10:43:53;;;;;;;11.77;3.20;;;9.70;99.90;;;;;;5048257;28;20479;-84
2023/01/08 10:46:30;;;;;;;8.82;2.50;;;9.80;99.90;;;;;;5060367;28;20492;-84
2023/01/08 10:49:01;;;;;;;9.98;2.83;;;9.80;99.90;;;;;;5047822;28;20033;-84
2023/01/08 10:51:29;;;;;;;6.53;2.55;;;9.80;99.90;;;;;;5046891;28;20045;-83
2023/01/08 10:54:11;;;;;;;14.93;2.70;;;9.80;99.90;;;;;;5047578;28;20143;-84
2023/01/08 10:56:42;;;;;;;7.88;2.53;;;9.90;99.90;;;;;;5061575;28;20048;-84
2023/01/08 10:59:22;;;;;;;11.40;2.75;;;9.70;99.90;;;;;;5062491;28;20127;-84
2023/01/08 11:01:49;;;;;;;12.05;3.17;;;9.70;99.90;;;;;;5047762;28;20037;-84
2023/01/08 11:04:22;;;;;;;9.52;2.90;;;9.80;99.90;;;;;;5063360;28;20198;-84
2023/01/08 11:06:48;;;;;;;17.92;3.17;;;9.80;99.90;;;;;;5063308;28;20158;-83
2023/01/08 11:09:27;;;;;;;10.05;2.70;;;9.80;99.90;;;;;;5063147;28;20045;-83
2023/01/08 11:11:53;;;;;;;9.90;2.53;;;9.80;99.90;;;;;;5062565;28;20048;-83
2023/01/08 11:14:33;;;;;;;15.43;3.35;;;9.70;99.90;;;;;;5059087;28;20047;-83
2023/01/08 11:17:01;;;;;;;9.75;2.80;;;9.70;99.90;;;;;;5047785;28;20040;-84
2023/01/08 11:19:33;;;;;;;10.63;3.00;;;9.70;99.90;;;;;;5064668;28;20531;-84
2023/01/08 11:22:16;;;;;;;9.63;2.63;;;9.80;99.90;;;;;;5049540;28;20036;-84
2023/01/08 11:24:43;;;;;;;11.75;2.88;;;9.80;99.90;;;;;;5066619;28;20037;-83
2023/01/08 11:27:13;;;;;;;10.85;2.85;;;9.70;99.90;;;;;;5067732;28;20078;-83
2023/01/08 11:29:44;;;;;;;13.23;3.28;;;9.70;99.90;;;;;;5049669;28;20148;-83
2023/01/08 11:32:34;;;;;;;14.05;3.08;;;9.70;99.90;;;;;;5065274;28;20127;-83
2023/01/08 11:35:11;;;;;;;12.40;2.95;;;9.70;99.90;;;;;;5050218;28;20048;-83
2023/01/08 11:37:42;;;;;;;8.95;2.95;;;9.70;99.90;;;;;;5064551;28;20055;-83
2023/01/08 11:40:16;;;;;;;12.00;2.85;;;9.90;99.90;;;;;;5065834;28;20101;-84
2023/01/08 11:42:42;;;;;;;;;;;10.00;99.90;;;;;;5047750;28;20417;-84
2023/01/08 11:45:21;;;;;;;9.38;2.85;;;10.00;99.90;;;;;;5047264;28;19924;-83
2023/01/08 11:48:26;;;;;;;11.43;3.05;;;10.10;99.90;;;;;;5049131;28;20032;-83
2023/01/08 11:51:16;;;;;;;12.88;3.40;;;10.20;99.90;;;;;;5016326;28;20059;-83
2023/01/08 11:54:11;;;;;;;11.05;3.17;;;10.20;99.90;;;;;;5064629;28;20036;-83
2023/01/08 11:56:58;;;;;;;10.23;3.15;;;10.20;99.90;;;;;;5019639;28;20088;-84
2023/01/08 11:59:36;;;;;;;8.07;2.70;;;10.20;99.90;;;;;;5063575;28;20489;-83
2023/01/08 12:02:49;;;;;;;12.45;2.90;;;10.20;99.90;;;;;;5062563;28;20408;-84
2023/01/08 12:05:25;;;;;;;10.77;3.05;;;10.20;99.90;;;;;;5044175;28;20075;-84
2023/01/08 12:08:10;;;;;;;10.93;3.65;;;10.30;99.90;;;;;;5045227;28;20064;-84
2023/01/08 12:11:02;;;;;;;13.40;3.50;;;10.30;99.90;;;;;;5061183;28;20040;-84
2023/01/08 12:13:42;;;;;;;14.88;3.28;;;10.30;99.90;;;;;;5075729;28;20037;-84
2023/01/08 12:16:08;;;;;;;13.43;2.95;;;10.20;99.90;;;;;;5075241;28;20040;-84
2023/01/08 12:18:33;;;;;;;12.82;2.72;;;10.20;99.90;;;;;;5043921;28;20043;-84
2023/01/08 12:21:20;;;;;;;10.18;3.10;;;10.10;99.90;;;;;;5046255;28;20042;-84
2023/01/08 12:24:06;;;;;;;11.40;3.35;;;10.10;99.90;;;;;;5045780;28;20527;-84
2023/01/08 12:26:58;;;;;;;13.43;3.40;;;9.90;99.90;;;;;;5052830;28;20041;-83
2023/01/08 12:29:41;;;;;;;14.75;3.30;;;9.90;99.90;;;;;;5046709;28;20044;-84
2023/01/08 12:32:10;;;;;;;9.60;3.33;;;9.90;99.90;;;;;;5046105;28;20045;-84
2023/01/08 12:34:42;;;;;;;12.20;2.97;;;10.00;99.90;;;;;;5046957;28;20049;-84
2023/01/08 12:37:20;;;;;;;12.30;3.38;;;10.00;99.90;;;;;;5064326;28;20531;-84
2023/01/08 12:40:03;;;;;;;7.55;2.85;;;10.00;99.90;;;;;;5045584;28;20056;-84
2023/01/08 12:42:31;;;;;;;12.25;3.50;;;10.00;99.90;;;;;;5048037;28;20071;-84
2023/01/08 12:44:59;;;;;;;11.82;3.30;;;10.00;99.90;;;;;;5062129;28;20040;-84
2023/01/08 12:47:29;;;;;;;10.20;3.35;;;9.90;99.90;;;;;;5044738;28;20457;-84
2023/01/08 12:50:09;;;;;;;10.80;3.78;;;9.90;99.90;;;;;;5062251;28;20046;-84
2023/01/08 12:52:45;;;;;;;9.30;3.50;;;9.80;99.90;;;;;;5079491;28;20036;-84
2023/01/08 12:55:34;;;;;;;14.70;3.60;;;9.70;99.90;;;;;;5057762;28;20404;-84
2023/01/08 12:58:21;;;;;;;8.75;3.28;;;9.80;99.90;;;;;;5070834;28;20040;-84
2023/01/08 13:01:05;;;;;;;13.90;3.63;;;9.80;99.90;;;;;;5056840;28;20041;-84
2023/01/08 13:03:32;;;;;;;9.13;3.00;;;9.90;99.90;;;;;;5041870;28;20043;-83
2023/01/08 13:06:13;;;;;;;14.18;3.38;;;9.90;99.90;;;;;;5046139;28;20400;-84
2023/01/08 13:08:43;;;;;;;13.02;3.35;;;9.90;99.90;;;;;;5058302;28;20568;-84